createdAt,value
2018-06-28T00:00:48.484Z,0.00
2018-06-28T00:01:48.488Z,0.00
2018-06-28T00:02:48.482Z,0.00
2018-06-28T00:03:48.483Z,0.00
2018-06-28T00:04:48.484Z,0.00
2018-06-28T00:05:48.477Z,0.00
2018-06-28T00:06:48.475Z,0.00
2018-06-28T00:07:48.474Z,0.00
2018-06-28T00:08:48.516Z,0.00
2018-06-28T00:09:48.471Z,0.00
2018-06-28T00:10:48.469Z,0.00
2018-06-28T00:11:48.469Z,0.00
2018-06-28T00:12:48.467Z,0.00
2018-06-28T00:13:48.465Z,0.00
2018-06-28T00:14:48.464Z,0.00
2018-06-28T00:15:48.463Z,0.00
2018-06-28T00:16:48.460Z,0.00
2018-06-28T00:17:48.459Z,0.00
2018-06-28T00:18:48.458Z,0.00
2018-06-28T00:19:48.457Z,0.00
2018-06-28T00:20:48.454Z,0.00
2018-06-28T00:21:48.454Z,0.00
2018-06-28T00:22:48.452Z,0.00
2018-06-28T00:23:48.455Z,0.00
2018-06-28T00:24:48.451Z,0.00
2018-06-28T00:25:48.448Z,0.00
2018-06-28T00:26:48.446Z,0.00
2018-06-28T00:27:48.444Z,0.00
2018-06-28T00:28:48.443Z,0.00
2018-06-28T00:29:48.441Z,0.00
2018-06-28T00:30:48.439Z,0.00
2018-06-28T00:31:48.438Z,0.00
2018-06-28T00:32:48.437Z,0.00
2018-06-28T00:33:48.434Z,0.00
2018-06-28T00:34:48.433Z,0.00
2018-06-28T00:35:48.432Z,0.00
2018-06-28T00:36:48.431Z,0.00
2018-06-28T00:37:48.428Z,0.00
2018-06-28T00:38:48.427Z,0.00
2018-06-28T00:39:48.427Z,0.00
2018-06-28T00:40:48.424Z,0.00
2018-06-28T00:41:48.423Z,0.00
2018-06-28T00:42:48.421Z,0.00
2018-06-28T00:43:48.468Z,0.00
2018-06-28T00:44:48.418Z,0.00
2018-06-28T00:45:48.416Z,0.00
2018-06-28T00:46:48.415Z,0.00
2018-06-28T00:47:48.413Z,0.00
2018-06-28T00:48:48.412Z,0.00
2018-06-28T00:49:48.409Z,0.00
2018-06-28T00:50:48.408Z,0.00
2018-06-28T00:51:48.406Z,0.00
2018-06-28T00:52:48.404Z,0.00
2018-06-28T00:53:48.404Z,0.00
2018-06-28T00:54:48.403Z,0.00
2018-06-28T00:55:48.400Z,0.00
2018-06-28T00:56:48.398Z,0.00
2018-06-28T00:57:48.397Z,0.00
2018-06-28T00:58:48.396Z,0.00
2018-06-28T00:59:48.395Z,0.00
2018-06-28T01:00:48.393Z,0.00
2018-06-28T01:01:48.392Z,0.00
2018-06-28T01:02:48.389Z,0.00
2018-06-28T01:03:48.388Z,0.00
2018-06-28T01:04:48.385Z,0.00
2018-06-28T01:05:48.386Z,0.00
2018-06-28T01:06:48.384Z,0.00
2018-06-28T01:07:48.381Z,0.00
2018-06-28T01:08:48.379Z,0.00
2018-06-28T01:09:48.379Z,0.00
2018-06-28T01:10:48.377Z,0.00
2018-06-28T01:11:48.375Z,0.00
2018-06-28T01:12:48.373Z,0.00
2018-06-28T01:13:48.371Z,0.00
2018-06-28T01:14:48.370Z,0.00
2018-06-28T01:15:48.368Z,0.00
2018-06-28T01:16:48.372Z,0.00
2018-06-28T01:17:48.371Z,0.00
2018-06-28T01:18:48.365Z,0.00
2018-06-28T01:19:48.361Z,0.00
2018-06-28T01:20:48.400Z,0.00
2018-06-28T01:21:48.358Z,0.00
2018-06-28T01:22:48.356Z,0.00
2018-06-28T01:23:48.355Z,0.00
2018-06-28T01:24:48.355Z,0.00
2018-06-28T01:25:48.353Z,0.00
2018-06-28T01:26:48.350Z,0.00
2018-06-28T01:27:48.348Z,0.00
2018-06-28T01:28:48.346Z,0.00
2018-06-28T01:29:48.345Z,0.00
2018-06-28T01:30:48.343Z,0.00
2018-06-28T01:31:48.340Z,0.00
2018-06-28T01:32:48.340Z,0.00
2018-06-28T01:33:48.337Z,0.00
2018-06-28T01:34:48.335Z,0.00
2018-06-28T01:35:48.335Z,0.00
2018-06-28T01:36:48.332Z,0.00
2018-06-28T01:37:48.330Z,0.00
2018-06-28T01:38:48.328Z,0.00
2018-06-28T01:39:48.334Z,0.00
2018-06-28T01:40:48.327Z,0.00
2018-06-28T01:41:48.324Z,0.00
2018-06-28T01:42:48.321Z,0.00
2018-06-28T01:43:48.319Z,0.00
2018-06-28T01:44:48.323Z,0.00
2018-06-28T01:45:48.317Z,0.00
2018-06-28T01:46:48.364Z,0.00
2018-06-28T01:47:48.317Z,0.00
2018-06-28T01:48:48.313Z,0.00
2018-06-28T01:49:48.310Z,0.00
2018-06-28T01:50:48.306Z,0.00
2018-06-28T01:51:48.306Z,0.00
2018-06-28T01:52:48.303Z,0.00
2018-06-28T01:53:48.303Z,0.00
2018-06-28T01:54:48.300Z,0.00
2018-06-28T01:55:48.299Z,0.00
2018-06-28T01:56:48.297Z,0.00
2018-06-28T01:57:48.295Z,0.00
2018-06-28T01:58:48.292Z,0.00
2018-06-28T01:59:48.291Z,0.00
2018-06-28T02:00:48.289Z,0.00
2018-06-28T02:01:48.287Z,0.00
2018-06-28T02:02:48.285Z,0.00
2018-06-28T02:03:48.284Z,0.00
2018-06-28T02:04:48.282Z,0.00
2018-06-28T02:05:48.281Z,0.00
2018-06-28T02:06:48.305Z,0.00
2018-06-28T02:07:48.277Z,0.00
2018-06-28T02:08:48.275Z,0.00
2018-06-28T02:09:48.272Z,0.00
2018-06-28T02:10:48.269Z,0.00
2018-06-28T02:11:48.268Z,0.00
2018-06-28T02:12:48.267Z,0.00
2018-06-28T02:13:48.265Z,0.00
2018-06-28T02:14:48.263Z,0.00
2018-06-28T02:15:48.263Z,0.00
2018-06-28T02:16:48.260Z,0.00
2018-06-28T02:17:48.258Z,0.00
2018-06-28T02:18:48.255Z,0.00
2018-06-28T02:19:48.254Z,0.00
2018-06-28T02:20:48.252Z,0.00
2018-06-28T02:21:48.249Z,0.00
2018-06-28T02:22:48.248Z,0.00
2018-06-28T02:23:48.247Z,0.00
2018-06-28T02:24:48.244Z,0.00
2018-06-28T02:25:48.246Z,0.00
2018-06-28T02:26:48.240Z,0.00
2018-06-28T02:27:48.239Z,0.00
2018-06-28T02:28:48.240Z,0.00
2018-06-28T02:29:48.240Z,0.00
2018-06-28T02:30:48.233Z,0.00
2018-06-28T02:31:48.232Z,0.00
2018-06-28T02:32:48.230Z,0.00
2018-06-28T02:33:48.227Z,0.00
2018-06-28T02:34:48.225Z,0.00
2018-06-28T02:35:48.224Z,0.00
2018-06-28T02:36:48.228Z,0.00
2018-06-28T02:37:48.220Z,0.00
2018-06-28T02:38:48.219Z,0.00
2018-06-28T02:39:48.217Z,0.00
2018-06-28T02:40:48.215Z,0.00
2018-06-28T02:41:48.214Z,0.00
2018-06-28T02:42:48.210Z,0.00
2018-06-28T02:43:48.208Z,0.00
2018-06-28T02:44:48.207Z,0.00
2018-06-28T02:45:48.210Z,0.00
2018-06-28T02:46:48.204Z,0.00
2018-06-28T02:47:48.202Z,0.00
2018-06-28T02:48:48.203Z,0.00
2018-06-28T02:49:48.198Z,0.00
2018-06-28T02:50:48.196Z,0.00
2018-06-28T02:51:48.195Z,0.00
2018-06-28T02:52:48.193Z,0.00
2018-06-28T02:53:48.191Z,0.00
2018-06-28T02:54:48.188Z,0.00
2018-06-28T02:55:48.188Z,4.00
2018-06-28T02:56:48.185Z,4.00
2018-06-28T02:57:48.188Z,4.00
2018-06-28T02:58:48.181Z,0.00
2018-06-28T02:59:48.181Z,0.00
2018-06-28T03:00:48.181Z,0.00
2018-06-28T03:01:48.177Z,4.00
2018-06-28T03:02:48.175Z,4.00
2018-06-28T03:03:48.172Z,4.00
2018-06-28T03:04:48.172Z,4.00
2018-06-28T03:05:48.172Z,4.00
2018-06-28T03:06:48.173Z,4.00
2018-06-28T03:07:48.167Z,8.00
2018-06-28T03:08:48.163Z,4.00
2018-06-28T03:09:48.162Z,8.00
2018-06-28T03:10:48.160Z,8.00
2018-06-28T03:11:48.157Z,8.00
2018-06-28T03:12:48.157Z,12.00
2018-06-28T03:13:48.155Z,12.00
2018-06-28T03:14:48.151Z,8.00
2018-06-28T03:15:48.149Z,12.00
2018-06-28T03:16:48.148Z,12.00
2018-06-28T03:17:48.148Z,8.00
2018-06-28T03:18:48.145Z,12.00
2018-06-28T03:19:48.144Z,8.00
2018-06-28T03:20:48.140Z,8.00
2018-06-28T03:21:48.138Z,12.00
2018-06-28T03:22:48.138Z,12.00
2018-06-28T03:23:48.135Z,12.00
2018-06-28T03:24:48.134Z,16.00
2018-06-28T03:25:48.131Z,16.00
2018-06-28T03:26:48.129Z,16.00
2018-06-28T03:27:48.177Z,20.00
2018-06-28T03:28:48.126Z,16.00
2018-06-28T03:29:48.123Z,20.00
2018-06-28T03:30:48.205Z,20.00
2018-06-28T03:31:48.121Z,24.00
2018-06-28T03:32:48.118Z,28.00
2018-06-28T03:33:48.116Z,24.00
2018-06-28T03:34:48.113Z,24.00
2018-06-28T03:35:48.111Z,28.00
2018-06-28T03:36:48.112Z,24.00
2018-06-28T03:37:48.178Z,24.00
2018-06-28T03:38:48.105Z,20.00
2018-06-28T03:39:48.105Z,20.00
2018-06-28T03:40:48.103Z,20.00
2018-06-28T03:41:48.153Z,16.00
2018-06-28T03:42:48.100Z,16.00
2018-06-28T03:43:48.097Z,16.00
2018-06-28T03:44:48.095Z,12.00
2018-06-28T03:45:48.096Z,16.00
2018-06-28T03:46:48.091Z,16.00
2018-06-28T03:47:48.090Z,16.00
2018-06-28T03:48:48.089Z,12.00
2018-06-28T03:49:48.090Z,16.00
2018-06-28T03:50:48.084Z,12.00
2018-06-28T03:51:48.086Z,20.00
2018-06-28T03:52:48.081Z,20.00
2018-06-28T03:53:48.079Z,28.00
2018-06-28T03:54:48.078Z,28.00
2018-06-28T03:55:48.074Z,36.00
2018-06-28T03:56:48.072Z,40.00
2018-06-28T03:57:48.071Z,44.00
2018-06-28T03:58:48.070Z,44.00
2018-06-28T03:59:48.068Z,40.00
2018-06-28T04:00:48.065Z,40.00
2018-06-28T04:01:48.064Z,40.00
2018-06-28T04:02:48.062Z,36.00
2018-06-28T04:03:48.059Z,40.00
2018-06-28T04:04:48.059Z,40.00
2018-06-28T04:05:48.056Z,48.00
2018-06-28T04:06:48.053Z,52.00
2018-06-28T04:07:48.056Z,56.00
2018-06-28T04:08:48.050Z,60.00
2018-06-28T04:09:48.050Z,68.00
2018-06-28T04:10:48.050Z,72.00
2018-06-28T04:11:48.044Z,72.00
2018-06-28T04:12:48.043Z,68.00
2018-06-28T04:13:48.043Z,72.00
2018-06-28T04:14:48.040Z,72.00
2018-06-28T04:15:48.038Z,72.00
2018-06-28T04:16:48.044Z,72.00
2018-06-28T04:17:48.034Z,76.00
2018-06-28T04:18:48.032Z,72.00
2018-06-28T04:19:48.031Z,76.00
2018-06-28T04:20:48.028Z,76.00
2018-06-28T04:21:48.029Z,76.00
2018-06-28T04:22:48.024Z,76.00
2018-06-28T04:23:48.024Z,80.00
2018-06-28T04:24:48.021Z,80.00
2018-06-28T04:25:48.021Z,72.00
2018-06-28T04:26:48.018Z,68.00
2018-06-28T04:27:48.022Z,72.00
2018-06-28T04:28:48.015Z,76.00
2018-06-28T04:29:48.013Z,80.00
2018-06-28T04:30:48.011Z,84.00
2018-06-28T04:31:48.009Z,88.00
2018-06-28T04:32:48.007Z,104.00
2018-06-28T04:33:48.006Z,120.00
2018-06-28T04:34:48.004Z,120.00
2018-06-28T04:35:48.002Z,116.00
2018-06-28T04:36:48.000Z,116.00
2018-06-28T04:37:47.998Z,116.00
2018-06-28T04:38:47.996Z,128.00
2018-06-28T04:39:47.994Z,144.00
2018-06-28T04:40:47.993Z,168.00
2018-06-28T04:41:47.992Z,208.00
2018-06-28T04:42:47.989Z,228.00
2018-06-28T04:43:47.987Z,236.00
2018-06-28T04:44:47.986Z,252.00
2018-06-28T04:45:47.983Z,276.00
2018-06-28T04:46:47.983Z,288.00
2018-06-28T04:47:47.979Z,280.00
2018-06-28T04:48:47.981Z,276.00
2018-06-28T04:49:48.007Z,268.00
2018-06-28T04:50:47.982Z,288.00
2018-06-28T04:51:47.972Z,340.00
2018-06-28T04:52:47.972Z,400.00
2018-06-28T04:53:47.970Z,456.00
2018-06-28T04:54:47.966Z,500.00
2018-06-28T04:55:47.965Z,516.00
2018-06-28T04:56:47.965Z,496.00
2018-06-28T04:57:47.963Z,452.00
2018-06-28T04:58:47.962Z,420.00
2018-06-28T04:59:47.960Z,388.00
2018-06-28T05:00:47.958Z,348.00
2018-06-28T05:01:47.956Z,288.00
2018-06-28T05:02:47.953Z,248.00
2018-06-28T05:03:47.952Z,252.00
2018-06-28T05:04:47.950Z,288.00
2018-06-28T05:05:47.949Z,380.00
2018-06-28T05:06:47.950Z,468.00
2018-06-28T05:07:47.945Z,532.00
2018-06-28T05:08:47.943Z,596.00
2018-06-28T05:09:47.949Z,640.00
2018-06-28T05:10:47.939Z,652.00
2018-06-28T05:11:47.939Z,676.00
2018-06-28T05:12:47.936Z,684.00
2018-06-28T05:13:47.935Z,660.00
2018-06-28T05:14:47.932Z,648.00
2018-06-28T05:15:47.932Z,728.00
2018-06-28T05:16:47.929Z,816.00
2018-06-28T05:17:47.928Z,876.00
2018-06-28T05:18:47.926Z,916.00
2018-06-28T05:19:47.925Z,920.00
2018-06-28T05:20:47.924Z,924.00
2018-06-28T05:21:47.922Z,932.00
2018-06-28T05:22:47.920Z,924.00
2018-06-28T05:23:47.917Z,940.00
2018-06-28T05:24:47.917Z,976.00
2018-06-28T05:25:47.915Z,1028.00
2018-06-28T05:26:47.913Z,1084.00
2018-06-28T05:27:47.912Z,1124.00
2018-06-28T05:28:47.912Z,1160.00
2018-06-28T05:29:47.910Z,1168.00
2018-06-28T05:30:47.908Z,1156.00
2018-06-28T05:31:47.906Z,1132.00
2018-06-28T05:32:47.905Z,1108.00
2018-06-28T05:33:47.906Z,1104.00
2018-06-28T05:34:47.919Z,1136.00
2018-06-28T05:35:47.900Z,1168.00
2018-06-28T05:36:47.898Z,1192.00
2018-06-28T05:37:47.897Z,1204.00
2018-06-28T05:38:47.895Z,1140.00
2018-06-28T05:39:47.893Z,1080.00
2018-06-28T05:40:47.892Z,1048.00
2018-06-28T05:41:47.890Z,1072.00
2018-06-28T05:42:47.987Z,1132.00
2018-06-28T05:43:47.886Z,1176.00
2018-06-28T05:44:47.889Z,1208.00
2018-06-28T05:45:47.886Z,1196.00
2018-06-28T05:46:47.889Z,1176.00
2018-06-28T05:47:47.880Z,1144.00
2018-06-28T05:48:47.884Z,1124.00
2018-06-28T05:49:47.882Z,1124.00
2018-06-28T05:50:47.877Z,1144.00
2018-06-28T05:51:47.874Z,1144.00
2018-06-28T05:52:47.875Z,1100.00
2018-06-28T05:53:47.875Z,1024.00
2018-06-28T05:54:47.870Z,1056.00
2018-06-28T05:55:47.874Z,1092.00
2018-06-28T05:56:48.130Z,1116.00
2018-06-28T05:57:48.074Z,1088.00
2018-06-28T05:58:48.340Z,1004.00
2018-06-28T05:59:48.177Z,908.00
2018-06-28T06:00:47.862Z,816.00
2018-06-28T06:01:47.860Z,748.00
2018-06-28T06:02:47.858Z,736.00
2018-06-28T06:03:47.857Z,740.00
2018-06-28T06:04:47.855Z,744.00
2018-06-28T06:05:47.854Z,724.00
2018-06-28T06:06:47.927Z,696.00
2018-06-28T06:07:47.851Z,696.00
2018-06-28T06:08:47.850Z,724.00
2018-06-28T06:09:47.852Z,760.00
2018-06-28T06:10:47.846Z,784.00
2018-06-28T06:11:47.845Z,844.00
2018-06-28T06:12:47.842Z,892.00
2018-06-28T06:13:47.858Z,956.00
2018-06-28T06:14:47.964Z,1044.00
2018-06-28T06:15:47.837Z,1144.00
2018-06-28T06:16:47.837Z,1232.00
2018-06-28T06:17:47.836Z,1188.00
2018-06-28T06:18:47.835Z,1112.00
2018-06-28T06:19:47.833Z,1076.00
2018-06-28T06:20:47.830Z,1004.00
2018-06-28T06:21:47.828Z,960.00
2018-06-28T06:22:47.827Z,924.00
2018-06-28T06:23:47.826Z,948.00
2018-06-28T06:24:47.824Z,1044.00
2018-06-28T06:25:47.822Z,1092.00
2018-06-28T06:26:47.820Z,1092.00
2018-06-28T06:27:47.823Z,1072.00
2018-06-28T06:28:47.819Z,940.00
2018-06-28T06:29:47.816Z,824.00
2018-06-28T06:30:47.816Z,764.00
2018-06-28T06:31:47.812Z,752.00
2018-06-28T06:32:47.811Z,752.00
2018-06-28T06:33:47.810Z,752.00
2018-06-28T06:34:47.807Z,756.00
2018-06-28T06:35:47.806Z,764.00
2018-06-28T06:36:47.805Z,748.00
2018-06-28T06:37:47.805Z,736.00
2018-06-28T06:38:47.802Z,732.00
2018-06-28T06:39:47.800Z,712.00
2018-06-28T06:40:47.934Z,692.00
2018-06-28T06:41:47.798Z,696.00
2018-06-28T06:42:47.796Z,708.00
2018-06-28T06:43:47.794Z,676.00
2018-06-28T06:44:47.798Z,604.00
2018-06-28T06:45:47.791Z,536.00
2018-06-28T06:46:47.788Z,552.00
2018-06-28T06:47:47.788Z,708.00
2018-06-28T06:48:47.801Z,1024.00
2018-06-28T06:49:47.786Z,1276.00
2018-06-28T06:50:47.784Z,1376.00
2018-06-28T06:51:47.781Z,1268.00
2018-06-28T06:52:47.781Z,1040.00
2018-06-28T06:53:47.780Z,872.00
2018-06-28T06:54:47.778Z,868.00
2018-06-28T06:55:47.779Z,960.00
2018-06-28T06:56:47.775Z,1088.00
2018-06-28T06:57:47.777Z,1164.00
2018-06-28T06:58:47.771Z,1160.00
2018-06-28T06:59:47.771Z,1056.00
2018-06-28T07:00:47.769Z,932.00
2018-06-28T07:01:47.768Z,856.00
2018-06-28T07:02:47.766Z,820.00
2018-06-28T07:03:47.767Z,792.00
2018-06-28T07:04:47.775Z,756.00
2018-06-28T07:05:47.763Z,716.00
2018-06-28T07:06:47.762Z,680.00
2018-06-28T07:07:47.759Z,644.00
2018-06-28T07:08:47.758Z,624.00
2018-06-28T07:09:47.757Z,604.00
2018-06-28T07:10:47.756Z,600.00
2018-06-28T07:11:47.753Z,632.00
2018-06-28T07:12:47.763Z,688.00
2018-06-28T07:13:47.752Z,756.00
2018-06-28T07:14:47.750Z,828.00
2018-06-28T07:15:47.748Z,848.00
2018-06-28T07:16:47.751Z,844.00
2018-06-28T07:17:47.745Z,808.00
2018-06-28T07:18:47.746Z,740.00
2018-06-28T07:19:47.742Z,676.00
2018-06-28T07:20:47.747Z,704.00
2018-06-28T07:21:47.740Z,796.00
2018-06-28T07:22:47.820Z,956.00
2018-06-28T07:23:47.738Z,1076.00
2018-06-28T07:24:47.754Z,1088.00
2018-06-28T07:25:47.738Z,1052.00
2018-06-28T07:26:47.817Z,1064.00
2018-06-28T07:27:47.730Z,1064.00
2018-06-28T07:28:47.730Z,1044.00
2018-06-28T07:29:47.731Z,996.00
2018-06-28T07:30:47.727Z,940.00
2018-06-28T07:31:47.726Z,912.00
2018-06-28T07:32:47.724Z,960.00
2018-06-28T07:33:47.813Z,1088.00
2018-06-28T07:34:47.722Z,1252.00
2018-06-28T07:35:47.723Z,1200.00
2018-06-28T07:36:47.719Z,1048.00
2018-06-28T07:37:47.719Z,940.00
2018-06-28T07:38:47.716Z,884.00
2018-06-28T07:39:47.716Z,872.00
2018-06-28T07:40:47.715Z,912.00
2018-06-28T07:41:47.713Z,996.00
2018-06-28T07:42:47.711Z,1176.00
2018-06-28T07:43:47.710Z,1136.00
2018-06-28T07:44:47.711Z,1056.00
2018-06-28T07:45:47.709Z,964.00
2018-06-28T07:46:47.725Z,824.00
2018-06-28T07:47:47.708Z,780.00
2018-06-28T07:48:47.705Z,756.00
2018-06-28T07:49:47.702Z,748.00
2018-06-28T07:50:47.702Z,720.00
2018-06-28T07:51:47.701Z,692.00
2018-06-28T07:52:47.699Z,756.00
2018-06-28T07:53:48.538Z,816.00
2018-06-28T07:54:47.809Z,808.00
2018-06-28T07:55:47.694Z,756.00
2018-06-28T07:56:47.694Z,676.00
2018-06-28T07:57:47.861Z,580.00
2018-06-28T07:58:48.297Z,524.00
2018-06-28T07:59:47.692Z,500.00
2018-06-28T08:00:47.688Z,468.00
2018-06-28T08:01:47.687Z,432.00
2018-06-28T08:02:47.685Z,428.00
2018-06-28T08:03:47.684Z,436.00
2018-06-28T08:04:47.683Z,432.00
2018-06-28T08:05:47.686Z,416.00
2018-06-28T08:06:47.679Z,424.00
2018-06-28T08:07:47.677Z,428.00
2018-06-28T08:08:47.679Z,476.00
2018-06-28T08:09:47.725Z,508.00
2018-06-28T08:10:47.673Z,520.00
2018-06-28T08:11:47.671Z,620.00
2018-06-28T08:12:47.671Z,632.00
2018-06-28T08:13:47.670Z,628.00
2018-06-28T08:14:47.667Z,604.00
2018-06-28T08:15:47.666Z,616.00
2018-06-28T08:16:47.664Z,608.00
2018-06-28T08:17:47.664Z,568.00
2018-06-28T08:18:47.661Z,532.00
2018-06-28T08:19:47.659Z,528.00
2018-06-28T08:20:47.662Z,508.00
2018-06-28T08:21:47.657Z,472.00
2018-06-28T08:22:47.654Z,460.00
2018-06-28T08:23:47.674Z,536.00
2018-06-28T08:24:47.653Z,640.00
2018-06-28T08:25:47.652Z,748.00
2018-06-28T08:26:47.649Z,816.00
2018-06-28T08:27:47.649Z,876.00
2018-06-28T08:28:47.648Z,836.00
2018-06-28T08:29:47.645Z,832.00
2018-06-28T08:30:47.645Z,948.00
2018-06-28T08:31:47.642Z,1140.00
2018-06-28T08:32:47.644Z,1144.00
2018-06-28T08:33:47.900Z,1084.00
2018-06-28T08:34:47.637Z,1072.00
2018-06-28T08:35:47.681Z,972.00
2018-06-28T08:36:47.638Z,912.00
2018-06-28T08:37:47.632Z,808.00
2018-06-28T08:38:47.631Z,788.00
2018-06-28T08:39:47.631Z,836.00
2018-06-28T08:40:47.629Z,824.00
2018-06-28T08:41:47.627Z,748.00
2018-06-28T08:42:47.625Z,756.00
2018-06-28T08:43:47.624Z,796.00
2018-06-28T08:44:47.623Z,744.00
2018-06-28T08:45:47.624Z,656.00
2018-06-28T08:46:47.619Z,540.00
2018-06-28T08:47:47.618Z,476.00
2018-06-28T08:48:47.625Z,472.00
2018-06-28T08:49:47.616Z,492.00
2018-06-28T08:50:47.613Z,552.00
2018-06-28T08:51:47.611Z,652.00
2018-06-28T08:52:47.609Z,684.00
2018-06-28T08:53:47.607Z,668.00
2018-06-28T08:54:47.606Z,700.00
2018-06-28T08:55:47.604Z,796.00
2018-06-28T08:56:47.603Z,780.00
2018-06-28T08:57:47.676Z,668.00
2018-06-28T08:58:47.600Z,664.00
2018-06-28T08:59:47.597Z,780.00
2018-06-28T09:00:47.597Z,880.00
2018-06-28T09:01:47.594Z,880.00
2018-06-28T09:02:47.592Z,780.00
2018-06-28T09:03:47.592Z,728.00
2018-06-28T09:04:47.628Z,772.00
2018-06-28T09:05:47.631Z,872.00
2018-06-28T09:06:47.587Z,1040.00
2018-06-28T09:07:47.585Z,1228.00
2018-06-28T09:08:47.583Z,1528.00
2018-06-28T09:09:47.583Z,1856.00
2018-06-28T09:10:47.580Z,1988.00
2018-06-28T09:11:47.579Z,1924.00
2018-06-28T09:12:47.577Z,1772.00
2018-06-28T09:13:47.576Z,1832.00
2018-06-28T09:14:47.573Z,2036.00
2018-06-28T09:15:47.579Z,2320.00
2018-06-28T09:16:47.571Z,2812.00
2018-06-28T09:17:47.569Z,3524.00
2018-06-28T09:18:47.568Z,4572.00
2018-06-28T09:19:47.568Z,4900.00
2018-06-28T09:20:47.566Z,4304.00
2018-06-28T09:21:47.565Z,3716.00
2018-06-28T09:22:47.598Z,3332.00
2018-06-28T09:23:47.564Z,3172.00
2018-06-28T09:24:47.561Z,3124.00
2018-06-28T09:25:47.565Z,2924.00
2018-06-28T09:26:47.559Z,2624.00
2018-06-28T09:27:47.559Z,2608.00
2018-06-28T09:28:47.559Z,2964.00
2018-06-28T09:29:47.557Z,3256.00
2018-06-28T09:30:47.555Z,3188.00
2018-06-28T09:31:47.996Z,2784.00
2018-06-28T09:32:47.555Z,2304.00
2018-06-28T09:33:47.555Z,1872.00
2018-06-28T09:34:47.554Z,1604.00
2018-06-28T09:35:47.568Z,1512.00
2018-06-28T09:36:47.553Z,1552.00
2018-06-28T09:37:47.552Z,1588.00
2018-06-28T09:38:47.551Z,1596.00
2018-06-28T09:39:47.551Z,1532.00
2018-06-28T09:40:47.550Z,1328.00
2018-06-28T09:41:47.549Z,1068.00
2018-06-28T09:42:47.803Z,848.00
2018-06-28T09:43:47.548Z,744.00
2018-06-28T09:44:47.626Z,752.00
2018-06-28T09:45:47.548Z,916.00
2018-06-28T09:46:47.549Z,1132.00
2018-06-28T09:47:47.598Z,1244.00
2018-06-28T09:48:47.561Z,1348.00
2018-06-28T09:49:47.543Z,1476.00
2018-06-28T09:50:47.587Z,1548.00
2018-06-28T09:51:47.828Z,1596.00
2018-06-28T09:52:47.540Z,1612.00
2018-06-28T09:53:47.540Z,1576.00
2018-06-28T09:54:47.620Z,1580.00
2018-06-28T09:55:47.539Z,1640.00
2018-06-28T09:56:47.538Z,1748.00
2018-06-28T09:57:47.538Z,1936.00
2018-06-28T09:58:47.536Z,2076.00
2018-06-28T09:59:47.535Z,2140.00
2018-06-28T10:00:47.538Z,2140.00
2018-06-28T10:01:47.533Z,2136.00
2018-06-28T10:02:47.533Z,2064.00
2018-06-28T10:03:47.594Z,1732.00
2018-06-28T10:04:47.728Z,1564.00
2018-06-28T10:05:47.532Z,1848.00
2018-06-28T10:06:47.534Z,2332.00
2018-06-28T10:07:47.530Z,2904.00
2018-06-28T10:08:47.530Z,3112.00
2018-06-28T10:09:47.528Z,3168.00
2018-06-28T10:10:47.528Z,3140.00
2018-06-28T10:11:47.550Z,2936.00
2018-06-28T10:12:47.528Z,2628.00
2018-06-28T10:13:47.526Z,2472.00
2018-06-28T10:14:47.575Z,2320.00
2018-06-28T10:15:47.529Z,2000.00
2018-06-28T10:16:47.525Z,1688.00
2018-06-28T10:17:47.525Z,1464.00
2018-06-28T10:18:47.522Z,1420.00
2018-06-28T10:19:47.523Z,1436.00
2018-06-28T10:20:47.522Z,1480.00
2018-06-28T10:21:47.526Z,1596.00
2018-06-28T10:22:47.521Z,1548.00
2018-06-28T10:23:47.520Z,1400.00
2018-06-28T10:24:47.522Z,1260.00
2018-06-28T10:25:47.520Z,1060.00
2018-06-28T10:26:47.518Z,1056.00
2018-06-28T10:27:47.518Z,1196.00
2018-06-28T10:28:47.518Z,1136.00
2018-06-28T10:29:47.553Z,1036.00
2018-06-28T10:30:47.516Z,1004.00
2018-06-28T10:31:47.514Z,924.00
2018-06-28T10:32:47.580Z,828.00
2018-06-28T10:33:47.514Z,808.00
2018-06-28T10:34:47.518Z,936.00
2018-06-28T10:35:47.513Z,1260.00
2018-06-28T10:36:47.512Z,1568.00
2018-06-28T10:37:47.511Z,1932.00
2018-06-28T10:38:47.637Z,2632.00
2018-06-28T10:39:47.512Z,3244.00
2018-06-28T10:40:47.612Z,3580.00
2018-06-28T10:41:47.510Z,3312.00
2018-06-28T10:42:47.506Z,2768.00
2018-06-28T10:43:47.506Z,2296.00
2018-06-28T10:44:47.508Z,1976.00
2018-06-28T10:45:47.507Z,1880.00
2018-06-28T10:46:47.504Z,1900.00
2018-06-28T10:47:47.693Z,1820.00
2018-06-28T10:48:47.517Z,1524.00
2018-06-28T10:49:47.544Z,1340.00
2018-06-28T10:50:47.503Z,1264.00
2018-06-28T10:51:47.504Z,1288.00
2018-06-28T10:52:47.500Z,1380.00
2018-06-28T10:53:47.502Z,1572.00
2018-06-28T10:54:47.596Z,1708.00
2018-06-28T10:55:47.504Z,1664.00
2018-06-28T10:56:47.499Z,1820.00
2018-06-28T10:57:47.499Z,1912.00
2018-06-28T10:58:47.500Z,1952.00
2018-06-28T10:59:47.502Z,2076.00
2018-06-28T11:00:47.498Z,2388.00
2018-06-28T11:01:47.504Z,2720.00
2018-06-28T11:02:47.494Z,2888.00
2018-06-28T11:03:47.494Z,2884.00
2018-06-28T11:04:47.493Z,2656.00
2018-06-28T11:05:47.494Z,2252.00
2018-06-28T11:06:47.492Z,2004.00
2018-06-28T11:07:47.492Z,1776.00
2018-06-28T11:08:47.491Z,1736.00
2018-06-28T11:09:47.492Z,1588.00
2018-06-28T11:10:47.490Z,1296.00
2018-06-28T11:11:47.490Z,1064.00
2018-06-28T11:12:47.491Z,960.00
2018-06-28T11:13:47.488Z,1240.00
2018-06-28T11:14:47.488Z,2028.00
2018-06-28T11:15:47.521Z,2788.00
2018-06-28T11:16:47.632Z,2732.00
2018-06-28T11:17:47.486Z,2656.00
2018-06-28T11:18:47.486Z,2828.00
2018-06-28T11:19:47.487Z,2528.00
2018-06-28T11:20:47.484Z,2384.00
2018-06-28T11:21:47.483Z,2228.00
2018-06-28T11:22:47.481Z,2064.00
2018-06-28T11:23:47.480Z,1748.00
2018-06-28T11:24:47.494Z,1652.00
2018-06-28T11:25:47.759Z,1864.00
2018-06-28T11:26:47.694Z,2360.00
2018-06-28T11:27:47.698Z,2648.00
2018-06-28T11:28:47.479Z,2688.00
2018-06-28T11:29:47.477Z,2496.00
2018-06-28T11:30:47.904Z,2312.00
2018-06-28T11:31:47.692Z,2348.00
2018-06-28T11:32:47.476Z,2432.00
2018-06-28T11:33:47.476Z,2760.00
2018-06-28T11:34:47.474Z,2816.00
2018-06-28T11:35:47.475Z,2312.00
2018-06-28T11:36:47.734Z,2152.00
2018-06-28T11:37:47.747Z,2136.00
2018-06-28T11:38:47.778Z,2016.00
2018-06-28T11:39:47.473Z,1984.00
2018-06-28T11:40:47.472Z,2156.00
2018-06-28T11:41:47.499Z,2684.00
2018-06-28T11:42:47.471Z,2724.00
2018-06-28T11:43:47.829Z,2736.00
2018-06-28T11:44:47.471Z,3032.00
2018-06-28T11:45:47.472Z,2880.00
2018-06-28T11:46:47.470Z,2796.00
2018-06-28T11:47:47.469Z,2976.00
2018-06-28T11:48:47.469Z,2828.00
2018-06-28T11:49:47.468Z,2888.00
2018-06-28T11:50:47.467Z,2756.00
2018-06-28T11:51:47.468Z,2680.00
2018-06-28T11:52:47.467Z,2620.00
2018-06-28T11:53:47.467Z,2480.00
2018-06-28T11:54:47.467Z,2108.00
2018-06-28T11:55:47.538Z,1920.00
2018-06-28T11:56:47.467Z,2076.00
2018-06-28T11:57:47.466Z,2536.00
2018-06-28T11:58:47.465Z,2764.00
2018-06-28T11:59:47.466Z,2756.00
2018-06-28T12:00:47.466Z,2568.00
2018-06-28T12:01:47.465Z,2588.00
2018-06-28T12:02:47.466Z,2912.00
2018-06-28T12:03:47.673Z,3216.00
2018-06-28T12:04:47.464Z,3324.00
2018-06-28T12:05:47.466Z,3332.00
2018-06-28T12:06:47.467Z,3080.00
2018-06-28T12:07:47.464Z,2736.00
2018-06-28T12:08:47.464Z,2576.00
2018-06-28T12:09:47.464Z,2788.00
2018-06-28T12:10:47.463Z,3164.00
2018-06-28T12:11:47.468Z,3128.00
2018-06-28T12:12:47.466Z,3148.00
2018-06-28T12:13:47.464Z,3324.00
2018-06-28T12:14:47.465Z,3632.00
2018-06-28T12:15:47.463Z,3812.00
2018-06-28T12:16:47.463Z,3936.00
2018-06-28T12:17:47.464Z,4044.00
2018-06-28T12:18:47.464Z,4304.00
2018-06-28T12:19:47.463Z,4424.00
2018-06-28T12:20:47.463Z,4512.00
2018-06-28T12:21:47.463Z,4556.00
2018-06-28T12:22:47.462Z,4620.00
2018-06-28T12:23:47.464Z,4640.00
2018-06-28T12:24:47.465Z,4524.00
2018-06-28T12:25:47.471Z,4364.00
2018-06-28T12:26:47.550Z,4156.00
2018-06-28T12:27:47.542Z,3916.00
2018-06-28T12:28:47.467Z,3676.00
2018-06-28T12:29:47.468Z,3524.00
2018-06-28T12:30:47.466Z,3400.00
2018-06-28T12:31:47.466Z,3316.00
2018-06-28T12:32:47.467Z,3248.00
2018-06-28T12:33:47.566Z,3248.00
2018-06-28T12:34:47.620Z,3372.00